sensor_id;sensor_type;location;lat;lon;timestamp;P1;durP1;ratioP1;P2;durP2;ratioP2
38615;SDS011;24370;51.986;4.666;2022-09-29T00:00:19;9.40;;;5.40;;
38615;SDS011;24370;51.986;4.666;2022-09-29T00:02:45;9.80;;;5.70;;
38615;SDS011;24370;51.986;4.666;2022-09-29T00:05:10;6.70;;;4.93;;
38615;SDS011;24370;51.986;4.666;2022-09-29T00:07:35;8.47;;;5.23;;
38615;SDS011;24370;51.986;4.666;2022-09-29T00:10:01;7.97;;;5.33;;
38615;SDS011;24370;51.986;4.666;2022-09-29T00:12:26;8.90;;;5.47;;
38615;SDS011;24370;51.986;4.666;2022-09-29T00:14:52;6.53;;;5.47;;
38615;SDS011;24370;51.986;4.666;2022-09-29T00:17:17;8.27;;;5.13;;
38615;SDS011;24370;51.986;4.666;2022-09-29T00:19:42;6.93;;;5.30;;
38615;SDS011;24370;51.986;4.666;2022-09-29T00:22:08;8.87;;;5.23;;
38615;SDS011;24370;51.986;4.666;2022-09-29T00:24:33;9.70;;;5.97;;
38615;SDS011;24370;51.986;4.666;2022-09-29T00:26:59;7.97;;;5.67;;
38615;SDS011;24370;51.986;4.666;2022-09-29T00:29:25;10.17;;;5.00;;
38615;SDS011;24370;51.986;4.666;2022-09-29T00:31:50;9.07;;;7.10;;
38615;SDS011;24370;51.986;4.666;2022-09-29T00:34:16;7.87;;;4.83;;
38615;SDS011;24370;51.986;4.666;2022-09-29T00:36:41;8.87;;;5.17;;
38615;SDS011;24370;51.986;4.666;2022-09-29T00:39:06;6.27;;;4.90;;
38615;SDS011;24370;51.986;4.666;2022-09-29T00:41:33;7.30;;;5.20;;
38615;SDS011;24370;51.986;4.666;2022-09-29T00:44:51;11.27;;;6.27;;
38615;SDS011;24370;51.986;4.666;2022-09-29T00:47:12;7.57;;;4.70;;
38615;SDS011;24370;51.986;4.666;2022-09-29T00:49:51;9.50;;;4.90;;
38615;SDS011;24370;51.986;4.666;2022-09-29T00:52:27;11.27;;;5.53;;
38615;SDS011;24370;51.986;4.666;2022-09-29T00:54:57;7.60;;;5.33;;
38615;SDS011;24370;51.986;4.666;2022-09-29T00:57:26;7.80;;;5.60;;
38615;SDS011;24370;51.986;4.666;2022-09-29T01:00:05;5.95;;;5.30;;
38615;SDS011;24370;51.986;4.666;2022-09-29T01:02:34;8.53;;;5.47;;
38615;SDS011;24370;51.986;4.666;2022-09-29T01:05:04;6.33;;;5.03;;
38615;SDS011;24370;51.986;4.666;2022-09-29T01:07:35;8.13;;;5.30;;
38615;SDS011;24370;51.986;4.666;2022-09-29T01:10:00;8.10;;;5.07;;
38615;SDS011;24370;51.986;4.666;2022-09-29T01:12:26;6.83;;;5.80;;
38615;SDS011;24370;51.986;4.666;2022-09-29T01:14:52;5.67;;;4.90;;
38615;SDS011;24370;51.986;4.666;2022-09-29T01:17:19;8.60;;;5.77;;
38615;SDS011;24370;51.986;4.666;2022-09-29T01:22:26;13.23;;;7.10;;
38615;SDS011;24370;51.986;4.666;2022-09-29T01:34:20;20.97;;;14.03;;
38615;SDS011;24370;51.986;4.666;2022-09-29T01:39:56;29.10;;;20.13;;
38615;SDS011;24370;51.986;4.666;2022-09-29T01:42:27;35.50;;;24.98;;
38615;SDS011;24370;51.986;4.666;2022-09-29T01:45:11;33.83;;;24.63;;
38615;SDS011;24370;51.986;4.666;2022-09-29T01:47:44;40.77;;;26.60;;
38615;SDS011;24370;51.986;4.666;2022-09-29T01:50:23;37.47;;;26.53;;
38615;SDS011;24370;51.986;4.666;2022-09-29T01:52:55;36.00;;;27.47;;
38615;SDS011;24370;51.986;4.666;2022-09-29T01:55:28;33.33;;;23.42;;
38615;SDS011;24370;51.986;4.666;2022-09-29T01:58:01;30.07;;;21.53;;
38615;SDS011;24370;51.986;4.666;2022-09-29T02:00:30;27.17;;;18.02;;
38615;SDS011;24370;51.986;4.666;2022-09-29T02:03:05;23.97;;;17.47;;
38615;SDS011;24370;51.986;4.666;2022-09-29T02:05:43;18.83;;;13.10;;
38615;SDS011;24370;51.986;4.666;2022-09-29T02:08:10;14.97;;;10.57;;
38615;SDS011;24370;51.986;4.666;2022-09-29T02:10:48;13.70;;;8.50;;
38615;SDS011;24370;51.986;4.666;2022-09-29T02:13:18;10.47;;;7.70;;
38615;SDS011;24370;51.986;4.666;2022-09-29T02:15:46;13.93;;;6.93;;
38615;SDS011;24370;51.986;4.666;2022-09-29T02:18:16;10.90;;;7.13;;
38615;SDS011;24370;51.986;4.666;2022-09-29T02:20:46;10.37;;;7.30;;
38615;SDS011;24370;51.986;4.666;2022-09-29T02:23:13;11.30;;;7.43;;
38615;SDS011;24370;51.986;4.666;2022-09-29T02:25:38;8.93;;;6.50;;
38615;SDS011;24370;51.986;4.666;2022-09-29T02:28:05;10.60;;;6.57;;
38615;SDS011;24370;51.986;4.666;2022-09-29T02:30:31;10.10;;;6.20;;
38615;SDS011;24370;51.986;4.666;2022-09-29T02:32:57;9.83;;;6.40;;
38615;SDS011;24370;51.986;4.666;2022-09-29T02:35:22;8.43;;;6.33;;
38615;SDS011;24370;51.986;4.666;2022-09-29T02:38:03;8.07;;;6.80;;
38615;SDS011;24370;51.986;4.666;2022-09-29T02:46:26;11.93;;;7.40;;
38615;SDS011;24370;51.986;4.666;2022-09-29T02:51:52;8.17;;;6.60;;
38615;SDS011;24370;51.986;4.666;2022-09-29T03:02:30;12.37;;;7.73;;
38615;SDS011;24370;51.986;4.666;2022-09-29T03:04:56;9.20;;;7.53;;
38615;SDS011;24370;51.986;4.666;2022-09-29T03:07:21;9.57;;;7.20;;
38615;SDS011;24370;51.986;4.666;2022-09-29T03:09:47;12.17;;;8.90;;
38615;SDS011;24370;51.986;4.666;2022-09-29T03:12:12;10.40;;;7.80;;
38615;SDS011;24370;51.986;4.666;2022-09-29T03:14:38;10.90;;;7.43;;
38615;SDS011;24370;51.986;4.666;2022-09-29T03:17:03;9.10;;;7.20;;
38615;SDS011;24370;51.986;4.666;2022-09-29T03:19:29;8.33;;;7.13;;
38615;SDS011;24370;51.986;4.666;2022-09-29T03:21:54;12.30;;;7.73;;
38615;SDS011;24370;51.986;4.666;2022-09-29T03:24:19;11.73;;;8.17;;
38615;SDS011;24370;51.986;4.666;2022-09-29T03:26:45;11.60;;;7.30;;
38615;SDS011;24370;51.986;4.666;2022-09-29T03:29:10;11.40;;;7.83;;
38615;SDS011;24370;51.986;4.666;2022-09-29T03:31:37;10.87;;;8.00;;
38615;SDS011;24370;51.986;4.666;2022-09-29T03:34:03;11.13;;;7.77;;
38615;SDS011;24370;51.986;4.666;2022-09-29T03:36:29;13.33;;;8.40;;
38615;SDS011;24370;51.986;4.666;2022-09-29T03:38:54;14.30;;;9.20;;
38615;SDS011;24370;51.986;4.666;2022-09-29T03:41:20;13.97;;;8.83;;
38615;SDS011;24370;51.986;4.666;2022-09-29T03:43:45;11.60;;;8.07;;
38615;SDS011;24370;51.986;4.666;2022-09-29T03:46:10;11.40;;;8.63;;
38615;SDS011;24370;51.986;4.666;2022-09-29T03:48:36;12.57;;;8.60;;
38615;SDS011;24370;51.986;4.666;2022-09-29T03:51:01;12.40;;;8.60;;
38615;SDS011;24370;51.986;4.666;2022-09-29T03:53:27;17.47;;;9.40;;
38615;SDS011;24370;51.986;4.666;2022-09-29T03:55:53;14.63;;;8.40;;
38615;SDS011;24370;51.986;4.666;2022-09-29T03:58:18;13.10;;;8.07;;
38615;SDS011;24370;51.986;4.666;2022-09-29T04:00:44;13.93;;;7.60;;
38615;SDS011;24370;51.986;4.666;2022-09-29T04:03:11;11.50;;;7.87;;
38615;SDS011;24370;51.986;4.666;2022-09-29T04:05:38;12.97;;;9.73;;
38615;SDS011;24370;51.986;4.666;2022-09-29T04:08:04;14.53;;;9.43;;
38615;SDS011;24370;51.986;4.666;2022-09-29T04:10:29;15.37;;;9.10;;
38615;SDS011;24370;51.986;4.666;2022-09-29T04:12:57;16.40;;;10.13;;
38615;SDS011;24370;51.986;4.666;2022-09-29T04:15:23;15.50;;;10.20;;
38615;SDS011;24370;51.986;4.666;2022-09-29T04:17:48;19.00;;;10.60;;
38615;SDS011;24370;51.986;4.666;2022-09-29T04:20:13;15.27;;;8.90;;
38615;SDS011;24370;51.986;4.666;2022-09-29T04:22:39;15.07;;;9.30;;
38615;SDS011;24370;51.986;4.666;2022-09-29T04:25:04;14.10;;;9.37;;
38615;SDS011;24370;51.986;4.666;2022-09-29T04:27:30;14.77;;;9.60;;
38615;SDS011;24370;51.986;4.666;2022-09-29T04:29:55;15.27;;;9.97;;
38615;SDS011;24370;51.986;4.666;2022-09-29T04:32:21;15.20;;;10.23;;
38615;SDS011;24370;51.986;4.666;2022-09-29T04:34:48;16.07;;;10.37;;
38615;SDS011;24370;51.986;4.666;2022-09-29T04:37:14;17.63;;;9.67;;
38615;SDS011;24370;51.986;4.666;2022-09-29T04:39:39;14.93;;;9.57;;
38615;SDS011;24370;51.986;4.666;2022-09-29T04:42:05;19.10;;;10.53;;
38615;SDS011;24370;51.986;4.666;2022-09-29T04:44:30;14.37;;;9.77;;
38615;SDS011;24370;51.986;4.666;2022-09-29T04:46:55;14.57;;;9.63;;
38615;SDS011;24370;51.986;4.666;2022-09-29T04:49:24;15.60;;;10.17;;
38615;SDS011;24370;51.986;4.666;2022-09-29T04:51:49;14.63;;;9.60;;
38615;SDS011;24370;51.986;4.666;2022-09-29T04:54:15;16.80;;;9.73;;
38615;SDS011;24370;51.986;4.666;2022-09-29T04:56:41;14.20;;;9.53;;
38615;SDS011;24370;51.986;4.666;2022-09-29T04:59:06;17.77;;;10.27;;
38615;SDS011;24370;51.986;4.666;2022-09-29T05:01:33;15.07;;;9.20;;
38615;SDS011;24370;51.986;4.666;2022-09-29T05:03:59;13.10;;;8.83;;
38615;SDS011;24370;51.986;4.666;2022-09-29T05:06:24;19.40;;;9.63;;
38615;SDS011;24370;51.986;4.666;2022-09-29T05:08:49;24.70;;;9.33;;
38615;SDS011;24370;51.986;4.666;2022-09-29T05:11:15;22.43;;;9.57;;
38615;SDS011;24370;51.986;4.666;2022-09-29T05:13:40;19.20;;;8.33;;
38615;SDS011;24370;51.986;4.666;2022-09-29T05:16:06;16.20;;;9.17;;
38615;SDS011;24370;51.986;4.666;2022-09-29T05:18:31;15.70;;;8.90;;
38615;SDS011;24370;51.986;4.666;2022-09-29T05:21:04;15.67;;;8.87;;
38615;SDS011;24370;51.986;4.666;2022-09-29T05:23:30;12.23;;;8.57;;
38615;SDS011;24370;51.986;4.666;2022-09-29T05:25:59;16.43;;;10.40;;
38615;SDS011;24370;51.986;4.666;2022-09-29T05:28:26;20.77;;;10.27;;
38615;SDS011;24370;51.986;4.666;2022-09-29T05:30:52;16.43;;;9.07;;
38615;SDS011;24370;51.986;4.666;2022-09-29T05:33:17;12.43;;;8.80;;
38615;SDS011;24370;51.986;4.666;2022-09-29T05:35:42;24.93;;;9.93;;
38615;SDS011;24370;51.986;4.666;2022-09-29T05:38:08;23.70;;;8.47;;
38615;SDS011;24370;51.986;4.666;2022-09-29T05:40:34;12.87;;;8.67;;
38615;SDS011;24370;51.986;4.666;2022-09-29T05:43:01;11.50;;;8.63;;
38615;SDS011;24370;51.986;4.666;2022-09-29T05:45:27;22.37;;;8.80;;
38615;SDS011;24370;51.986;4.666;2022-09-29T05:47:52;17.63;;;8.30;;
38615;SDS011;24370;51.986;4.666;2022-09-29T05:50:18;14.00;;;8.30;;
38615;SDS011;24370;51.986;4.666;2022-09-29T05:52:44;13.07;;;8.03;;
38615;SDS011;24370;51.986;4.666;2022-09-29T05:55:13;19.70;;;9.83;;
38615;SDS011;24370;51.986;4.666;2022-09-29T05:57:39;10.73;;;7.87;;
38615;SDS011;24370;51.986;4.666;2022-09-29T06:00:04;9.73;;;7.03;;
38615;SDS011;24370;51.986;4.666;2022-09-29T06:02:30;10.53;;;7.73;;
38615;SDS011;24370;51.986;4.666;2022-09-29T06:04:56;24.50;;;9.10;;
38615;SDS011;24370;51.986;4.666;2022-09-29T06:07:22;13.33;;;7.20;;
38615;SDS011;24370;51.986;4.666;2022-09-29T06:09:47;9.63;;;6.63;;
38615;SDS011;24370;51.986;4.666;2022-09-29T06:12:12;11.00;;;6.07;;
38615;SDS011;24370;51.986;4.666;2022-09-29T06:14:38;14.67;;;7.63;;
38615;SDS011;24370;51.986;4.666;2022-09-29T06:17:03;21.03;;;7.00;;
38615;SDS011;24370;51.986;4.666;2022-09-29T06:19:29;7.73;;;6.40;;
38615;SDS011;24370;51.986;4.666;2022-09-29T06:21:54;27.47;;;7.77;;
38615;SDS011;24370;51.986;4.666;2022-09-29T06:24:20;10.43;;;6.13;;
38615;SDS011;24370;51.986;4.666;2022-09-29T06:26:45;31.60;;;7.23;;
38615;SDS011;24370;51.986;4.666;2022-09-29T06:29:11;27.93;;;7.43;;
38615;SDS011;24370;51.986;4.666;2022-09-29T06:31:36;18.03;;;7.23;;
38615;SDS011;24370;51.986;4.666;2022-09-29T06:34:03;13.27;;;7.10;;
38615;SDS011;24370;51.986;4.666;2022-09-29T06:36:37;24.60;;;6.33;;
38615;SDS011;24370;51.986;4.666;2022-09-29T06:39:23;12.30;;;6.50;;
38615;SDS011;24370;51.986;4.666;2022-09-29T06:41:49;20.07;;;6.77;;
38615;SDS011;24370;51.986;4.666;2022-09-29T06:44:20;16.20;;;6.57;;
38615;SDS011;24370;51.986;4.666;2022-09-29T06:46:48;12.57;;;7.57;;
38615;SDS011;24370;51.986;4.666;2022-09-29T06:49:15;8.83;;;7.03;;
38615;SDS011;24370;51.986;4.666;2022-09-29T06:51:41;10.63;;;7.37;;
38615;SDS011;24370;51.986;4.666;2022-09-29T06:54:08;9.97;;;7.57;;
38615;SDS011;24370;51.986;4.666;2022-09-29T06:56:35;8.97;;;7.17;;
38615;SDS011;24370;51.986;4.666;2022-09-29T06:59:00;10.07;;;8.00;;
38615;SDS011;24370;51.986;4.666;2022-09-29T07:01:26;10.27;;;7.97;;
38615;SDS011;24370;51.986;4.666;2022-09-29T07:03:51;9.23;;;8.13;;
38615;SDS011;24370;51.986;4.666;2022-09-29T07:06:17;8.97;;;7.63;;
38615;SDS011;24370;51.986;4.666;2022-09-29T07:08:42;11.23;;;8.97;;
38615;SDS011;24370;51.986;4.666;2022-09-29T07:11:08;14.17;;;9.50;;
38615;SDS011;24370;51.986;4.666;2022-09-29T07:13:34;17.13;;;9.30;;
38615;SDS011;24370;51.986;4.666;2022-09-29T07:16:07;16.90;;;10.47;;
38615;SDS011;24370;51.986;4.666;2022-09-29T07:18:35;14.07;;;10.50;;
38615;SDS011;24370;51.986;4.666;2022-09-29T07:21:05;17.93;;;10.80;;
38615;SDS011;24370;51.986;4.666;2022-09-29T07:23:35;14.83;;;11.40;;
38615;SDS011;24370;51.986;4.666;2022-09-29T07:26:02;14.53;;;12.10;;
38615;SDS011;24370;51.986;4.666;2022-09-29T07:28:28;13.37;;;10.73;;
38615;SDS011;24370;51.986;4.666;2022-09-29T07:31:04;17.03;;;12.47;;
38615;SDS011;24370;51.986;4.666;2022-09-29T07:33:32;16.93;;;12.57;;
38615;SDS011;24370;51.986;4.666;2022-09-29T07:35:57;15.90;;;13.53;;
38615;SDS011;24370;51.986;4.666;2022-09-29T07:38:24;15.80;;;13.00;;
38615;SDS011;24370;51.986;4.666;2022-09-29T07:40:50;17.00;;;12.97;;
38615;SDS011;24370;51.986;4.666;2022-09-29T07:43:16;16.50;;;12.97;;
38615;SDS011;24370;51.986;4.666;2022-09-29T07:45:45;15.73;;;12.93;;
38615;SDS011;24370;51.986;4.666;2022-09-29T07:48:12;18.27;;;11.30;;
38615;SDS011;24370;51.986;4.666;2022-09-29T07:50:37;15.60;;;11.27;;
38615;SDS011;24370;51.986;4.666;2022-09-29T07:53:04;17.17;;;11.87;;
38615;SDS011;24370;51.986;4.666;2022-09-29T07:55:29;14.17;;;11.30;;
38615;SDS011;24370;51.986;4.666;2022-09-29T07:57:54;16.87;;;12.90;;
38615;SDS011;24370;51.986;4.666;2022-09-29T08:00:20;14.80;;;11.40;;
38615;SDS011;24370;51.986;4.666;2022-09-29T08:02:46;15.90;;;11.67;;
38615;SDS011;24370;51.986;4.666;2022-09-29T08:05:12;16.57;;;12.10;;
38615;SDS011;24370;51.986;4.666;2022-09-29T08:07:37;14.47;;;11.83;;
38615;SDS011;24370;51.986;4.666;2022-09-29T08:10:03;18.47;;;13.23;;
38615;SDS011;24370;51.986;4.666;2022-09-29T08:12:29;19.73;;;13.97;;
38615;SDS011;24370;51.986;4.666;2022-09-29T08:14:54;19.60;;;13.33;;
38615;SDS011;24370;51.986;4.666;2022-09-29T08:17:19;19.10;;;13.67;;
38615;SDS011;24370;51.986;4.666;2022-09-29T08:19:45;16.93;;;12.97;;
38615;SDS011;24370;51.986;4.666;2022-09-29T08:22:10;17.37;;;13.77;;
38615;SDS011;24370;51.986;4.666;2022-09-29T08:24:35;18.20;;;13.53;;
38615;SDS011;24370;51.986;4.666;2022-09-29T08:27:04;18.87;;;13.80;;
38615;SDS011;24370;51.986;4.666;2022-09-29T08:29:30;18.27;;;13.77;;
38615;SDS011;24370;51.986;4.666;2022-09-29T08:31:56;17.83;;;13.43;;
38615;SDS011;24370;51.986;4.666;2022-09-29T08:34:22;19.67;;;14.03;;
38615;SDS011;24370;51.986;4.666;2022-09-29T08:36:47;17.23;;;14.13;;
38615;SDS011;24370;51.986;4.666;2022-09-29T08:39:13;18.23;;;14.63;;
38615;SDS011;24370;51.986;4.666;2022-09-29T08:41:52;16.60;;;14.47;;
38615;SDS011;24370;51.986;4.666;2022-09-29T08:44:32;16.57;;;14.07;;
38615;SDS011;24370;51.986;4.666;2022-09-29T08:52:25;21.47;;;15.87;;
38615;SDS011;24370;51.986;4.666;2022-09-29T08:57:41;19.60;;;15.33;;
38615;SDS011;24370;51.986;4.666;2022-09-29T09:00:13;19.43;;;14.77;;
38615;SDS011;24370;51.986;4.666;2022-09-29T09:02:46;17.93;;;14.67;;
38615;SDS011;24370;51.986;4.666;2022-09-29T09:08:14;21.77;;;15.40;;
38615;SDS011;24370;51.986;4.666;2022-09-29T09:24:10;19.07;;;13.43;;
38615;SDS011;24370;51.986;4.666;2022-09-29T09:27:00;28.77;;;13.27;;
38615;SDS011;24370;51.986;4.666;2022-09-29T09:37:02;17.20;;;11.80;;
38615;SDS011;24370;51.986;4.666;2022-09-29T09:42:14;16.08;;;9.63;;
38615;SDS011;24370;51.986;4.666;2022-09-29T09:44:48;17.57;;;9.40;;
38615;SDS011;24370;51.986;4.666;2022-09-29T09:47:24;10.25;;;6.88;;
38615;SDS011;24370;51.986;4.666;2022-09-29T09:49:53;8.45;;;7.65;;
38615;SDS011;24370;51.986;4.666;2022-09-29T09:55:04;13.38;;;8.07;;
38615;SDS011;24370;51.986;4.666;2022-09-29T10:02:33;11.65;;;8.75;;
38615;SDS011;24370;51.986;4.666;2022-09-29T10:05:00;10.25;;;7.43;;
38615;SDS011;24370;51.986;4.666;2022-09-29T10:07:27;8.45;;;6.85;;
38615;SDS011;24370;51.986;4.666;2022-09-29T10:09:55;9.15;;;7.32;;
38615;SDS011;24370;51.986;4.666;2022-09-29T10:12:26;8.60;;;6.80;;
38615;SDS011;24370;51.986;4.666;2022-09-29T10:15:04;9.60;;;6.93;;
38615;SDS011;24370;51.986;4.666;2022-09-29T10:17:41;9.35;;;5.93;;
38615;SDS011;24370;51.986;4.666;2022-09-29T10:20:09;7.07;;;5.10;;
38615;SDS011;24370;51.986;4.666;2022-09-29T10:22:36;7.45;;;4.20;;
38615;SDS011;24370;51.986;4.666;2022-09-29T10:25:16;8.70;;;5.50;;
38615;SDS011;24370;51.986;4.666;2022-09-29T10:27:44;7.93;;;6.18;;
38615;SDS011;24370;51.986;4.666;2022-09-29T10:30:17;9.30;;;5.70;;
38615;SDS011;24370;51.986;4.666;2022-09-29T10:35:25;6.90;;;5.10;;
38615;SDS011;24370;51.986;4.666;2022-09-29T10:37:59;7.28;;;5.80;;
38615;SDS011;24370;51.986;4.666;2022-09-29T10:40:26;7.80;;;5.25;;
38615;SDS011;24370;51.986;4.666;2022-09-29T10:42:52;6.97;;;5.30;;
38615;SDS011;24370;51.986;4.666;2022-09-29T10:48:12;7.22;;;4.20;;
38615;SDS011;24370;51.986;4.666;2022-09-29T10:50:47;7.25;;;4.95;;
38615;SDS011;24370;51.986;4.666;2022-09-29T10:53:20;7.03;;;4.90;;
38615;SDS011;24370;51.986;4.666;2022-09-29T10:55:53;8.80;;;5.07;;
38615;SDS011;24370;51.986;4.666;2022-09-29T11:01:01;5.78;;;4.03;;
38615;SDS011;24370;51.986;4.666;2022-09-29T11:03:31;3.72;;;2.75;;
38615;SDS011;24370;51.986;4.666;2022-09-29T11:06:05;4.35;;;2.65;;
38615;SDS011;24370;51.986;4.666;2022-09-29T11:08:52;3.30;;;2.45;;
38615;SDS011;24370;51.986;4.666;2022-09-29T11:11:26;4.53;;;2.50;;
38615;SDS011;24370;51.986;4.666;2022-09-29T11:13:56;3.15;;;2.65;;
38615;SDS011;24370;51.986;4.666;2022-09-29T11:16:36;2.90;;;2.53;;
38615;SDS011;24370;51.986;4.666;2022-09-29T11:30:15;3.72;;;3.13;;
38615;SDS011;24370;51.986;4.666;2022-09-29T11:46:54;3.72;;;2.63;;
38615;SDS011;24370;51.986;4.666;2022-09-29T12:01:12;2.70;;;2.50;;
38615;SDS011;24370;51.986;4.666;2022-09-29T12:12:03;2.10;;;1.90;;
38615;SDS011;24370;51.986;4.666;2022-09-29T12:17:15;2.40;;;2.15;;
38615;SDS011;24370;51.986;4.666;2022-09-29T12:19:43;1.55;;;1.40;;
38615;SDS011;24370;51.986;4.666;2022-09-29T12:22:14;2.28;;;2.08;;
38615;SDS011;24370;51.986;4.666;2022-09-29T12:24:44;3.22;;;2.03;;
38615;SDS011;24370;51.986;4.666;2022-09-29T12:27:31;1.95;;;1.85;;
38615;SDS011;24370;51.986;4.666;2022-09-29T12:38:24;1.63;;;1.52;;
38615;SDS011;24370;51.986;4.666;2022-09-29T12:41:13;2.53;;;1.50;;
38615;SDS011;24370;51.986;4.666;2022-09-29T12:43:58;2.67;;;1.30;;
38615;SDS011;24370;51.986;4.666;2022-09-29T12:46:36;1.20;;;1.10;;
38615;SDS011;24370;51.986;4.666;2022-09-29T12:49:23;1.63;;;1.10;;
38615;SDS011;24370;51.986;4.666;2022-09-29T12:52:02;2.05;;;1.85;;
38615;SDS011;24370;51.986;4.666;2022-09-29T12:54:40;2.55;;;2.10;;
38615;SDS011;24370;51.986;4.666;2022-09-29T12:57:14;5.22;;;1.60;;
38615;SDS011;24370;51.986;4.666;2022-09-29T13:19:16;1.80;;;1.52;;
38615;SDS011;24370;51.986;4.666;2022-09-29T13:29:54;4.30;;;1.52;;
38615;SDS011;24370;51.986;4.666;2022-09-29T13:32:26;1.48;;;1.10;;
38615;SDS011;24370;51.986;4.666;2022-09-29T13:34:53;2.58;;;1.38;;
38615;SDS011;24370;51.986;4.666;2022-09-29T13:37:21;1.75;;;1.58;;
38615;SDS011;24370;51.986;4.666;2022-09-29T13:39:54;5.20;;;1.90;;
38615;SDS011;24370;51.986;4.666;2022-09-29T13:42:25;1.50;;;1.40;;
38615;SDS011;24370;51.986;4.666;2022-09-29T13:47:52;3.25;;;1.80;;
38615;SDS011;24370;51.986;4.666;2022-09-29T13:50:41;3.58;;;1.55;;
38615;SDS011;24370;51.986;4.666;2022-09-29T13:58:32;1.70;;;1.38;;
38615;SDS011;24370;51.986;4.666;2022-09-29T14:01:01;2.92;;;1.38;;
38615;SDS011;24370;51.986;4.666;2022-09-29T14:03:36;4.93;;;1.45;;
38615;SDS011;24370;51.986;4.666;2022-09-29T14:06:07;3.13;;;1.60;;
38615;SDS011;24370;51.986;4.666;2022-09-29T14:11:27;2.15;;;1.52;;
38615;SDS011;24370;51.986;4.666;2022-09-29T14:13:59;2.50;;;1.38;;
38615;SDS011;24370;51.986;4.666;2022-09-29T14:19:36;3.08;;;1.40;;
38615;SDS011;24370;51.986;4.666;2022-09-29T14:25:20;2.15;;;0.95;;
38615;SDS011;24370;51.986;4.666;2022-09-29T14:30:42;1.92;;;1.13;;
38615;SDS011;24370;51.986;4.666;2022-09-29T14:33:21;4.45;;;1.10;;
38615;SDS011;24370;51.986;4.666;2022-09-29T14:36:01;2.65;;;0.82;;
38615;SDS011;24370;51.986;4.666;2022-09-29T14:38:30;1.52;;;0.65;;
38615;SDS011;24370;51.986;4.666;2022-09-29T14:41:02;4.00;;;1.25;;
38615;SDS011;24370;51.986;4.666;2022-09-29T14:55:22;1.33;;;0.95;;
38615;SDS011;24370;51.986;4.666;2022-09-29T14:57:59;2.38;;;1.13;;
38615;SDS011;24370;51.986;4.666;2022-09-29T15:03:14;1.63;;;0.77;;
38615;SDS011;24370;51.986;4.666;2022-09-29T15:06:43;3.20;;;0.88;;
38615;SDS011;24370;51.986;4.666;2022-09-29T15:09:33;1.08;;;0.98;;
38615;SDS011;24370;51.986;4.666;2022-09-29T15:11:41;1.98;;;1.17;;
38615;SDS011;24370;51.986;4.666;2022-09-29T15:14:28;2.15;;;0.77;;
38615;SDS011;24370;51.986;4.666;2022-09-29T15:28:14;5.90;;;1.00;;
38615;SDS011;24370;51.986;4.666;2022-09-29T15:30:43;2.20;;;1.10;;
38615;SDS011;24370;51.986;4.666;2022-09-29T15:33:29;2.70;;;1.17;;
38615;SDS011;24370;51.986;4.666;2022-09-29T15:38:29;4.45;;;1.40;;
38615;SDS011;24370;51.986;4.666;2022-09-29T15:41:23;3.33;;;1.42;;
38615;SDS011;24370;51.986;4.666;2022-09-29T15:49:16;1.75;;;1.00;;
38615;SDS011;24370;51.986;4.666;2022-09-29T15:52:09;1.85;;;1.17;;
38615;SDS011;24370;51.986;4.666;2022-09-29T15:54:36;1.20;;;0.90;;
38615;SDS011;24370;51.986;4.666;2022-09-29T15:57:05;2.03;;;1.10;;
38615;SDS011;24370;51.986;4.666;2022-09-29T15:59:51;0.70;;;0.70;;
38615;SDS011;24370;51.986;4.666;2022-09-29T16:05:00;1.70;;;1.08;;
38615;SDS011;24370;51.986;4.666;2022-09-29T16:07:32;2.15;;;1.30;;
38615;SDS011;24370;51.986;4.666;2022-09-29T16:10:20;1.77;;;1.10;;
38615;SDS011;24370;51.986;4.666;2022-09-29T16:12:54;1.60;;;1.00;;
38615;SDS011;24370;51.986;4.666;2022-09-29T16:18:05;2.20;;;1.30;;
38615;SDS011;24370;51.986;4.666;2022-09-29T16:20:33;2.97;;;1.67;;
38615;SDS011;24370;51.986;4.666;2022-09-29T16:23:34;3.75;;;1.73;;
38615;SDS011;24370;51.986;4.666;2022-09-29T16:26:09;2.80;;;2.10;;
38615;SDS011;24370;51.986;4.666;2022-09-29T16:29:25;4.00;;;2.50;;
38615;SDS011;24370;51.986;4.666;2022-09-29T16:31:34;7.40;;;2.80;;
38615;SDS011;24370;51.986;4.666;2022-09-29T16:36:47;3.10;;;2.58;;
38615;SDS011;24370;51.986;4.666;2022-09-29T16:39:18;3.60;;;2.58;;
38615;SDS011;24370;51.986;4.666;2022-09-29T16:41:47;4.28;;;2.70;;
38615;SDS011;24370;51.986;4.666;2022-09-29T16:44:34;3.20;;;2.80;;
38615;SDS011;24370;51.986;4.666;2022-09-29T16:54:44;7.32;;;3.15;;
38615;SDS011;24370;51.986;4.666;2022-09-29T16:59:44;4.78;;;2.95;;
38615;SDS011;24370;51.986;4.666;2022-09-29T17:02:10;5.03;;;3.05;;
38615;SDS011;24370;51.986;4.666;2022-09-29T17:04:36;3.05;;;2.20;;
38615;SDS011;24370;51.986;4.666;2022-09-29T17:07:02;5.30;;;2.30;;
38615;SDS011;24370;51.986;4.666;2022-09-29T17:09:28;7.40;;;2.20;;
38615;SDS011;24370;51.986;4.666;2022-09-29T17:11:54;3.38;;;2.40;;
38615;SDS011;24370;51.986;4.666;2022-09-29T17:14:19;5.82;;;2.47;;
38615;SDS011;24370;51.986;4.666;2022-09-29T17:16:48;6.43;;;2.60;;
38615;SDS011;24370;51.986;4.666;2022-09-29T17:19:15;4.65;;;2.90;;
38615;SDS011;24370;51.986;4.666;2022-09-29T17:21:41;4.43;;;2.33;;
38615;SDS011;24370;51.986;4.666;2022-09-29T17:24:06;5.15;;;3.40;;
38615;SDS011;24370;51.986;4.666;2022-09-29T17:26:50;5.53;;;3.90;;
38615;SDS011;24370;51.986;4.666;2022-09-29T17:29:34;8.18;;;4.75;;
38615;SDS011;24370;51.986;4.666;2022-09-29T17:32:00;5.40;;;4.22;;
38615;SDS011;24370;51.986;4.666;2022-09-29T17:34:26;4.20;;;3.35;;
38615;SDS011;24370;51.986;4.666;2022-09-29T17:36:57;7.53;;;3.45;;
38615;SDS011;24370;51.986;4.666;2022-09-29T17:39:24;5.43;;;2.72;;
38615;SDS011;24370;51.986;4.666;2022-09-29T17:41:50;2.85;;;2.45;;
38615;SDS011;24370;51.986;4.666;2022-09-29T17:44:15;3.80;;;2.55;;
38615;SDS011;24370;51.986;4.666;2022-09-29T17:46:41;4.05;;;2.78;;
38615;SDS011;24370;51.986;4.666;2022-09-29T17:49:13;3.15;;;2.60;;
38615;SDS011;24370;51.986;4.666;2022-09-29T17:51:41;5.95;;;2.80;;
38615;SDS011;24370;51.986;4.666;2022-09-29T17:54:07;3.88;;;2.60;;
38615;SDS011;24370;51.986;4.666;2022-09-29T17:56:33;4.00;;;2.67;;
38615;SDS011;24370;51.986;4.666;2022-09-29T17:59:06;3.15;;;2.38;;
38615;SDS011;24370;51.986;4.666;2022-09-29T18:01:34;6.32;;;2.40;;
38615;SDS011;24370;51.986;4.666;2022-09-29T18:04:00;7.15;;;2.72;;
38615;SDS011;24370;51.986;4.666;2022-09-29T18:06:26;5.82;;;2.75;;
38615;SDS011;24370;51.986;4.666;2022-09-29T18:08:52;6.32;;;2.88;;
38615;SDS011;24370;51.986;4.666;2022-09-29T18:11:20;4.93;;;2.78;;
38615;SDS011;24370;51.986;4.666;2022-09-29T18:13:46;5.60;;;2.97;;
38615;SDS011;24370;51.986;4.666;2022-09-29T18:16:13;5.40;;;3.13;;
38615;SDS011;24370;51.986;4.666;2022-09-29T18:18:42;6.75;;;2.97;;
38615;SDS011;24370;51.986;4.666;2022-09-29T18:21:07;5.93;;;2.88;;
38615;SDS011;24370;51.986;4.666;2022-09-29T18:23:33;5.97;;;2.88;;
38615;SDS011;24370;51.986;4.666;2022-09-29T18:25:59;12.48;;;6.13;;
38615;SDS011;24370;51.986;4.666;2022-09-29T18:28:25;26.48;;;14.65;;
38615;SDS011;24370;51.986;4.666;2022-09-29T18:30:53;27.17;;;14.87;;
38615;SDS011;24370;51.986;4.666;2022-09-29T18:33:26;22.30;;;12.83;;
38615;SDS011;24370;51.986;4.666;2022-09-29T18:35:52;20.17;;;11.25;;
38615;SDS011;24370;51.986;4.666;2022-09-29T18:38:19;16.67;;;10.13;;
38615;SDS011;24370;51.986;4.666;2022-09-29T18:40:45;19.08;;;8.23;;
38615;SDS011;24370;51.986;4.666;2022-09-29T18:43:11;11.13;;;7.07;;
38615;SDS011;24370;51.986;4.666;2022-09-29T18:45:38;12.20;;;7.55;;
38615;SDS011;24370;51.986;4.666;2022-09-29T18:48:12;13.30;;;7.30;;
38615;SDS011;24370;51.986;4.666;2022-09-29T18:50:39;10.03;;;6.10;;